Andrew J. Barberi — WYR3370 — position and weather

sailwx.info

Track history (hours):
 
Tides and Currents Weather Stations Pressure Air Temp Water Temp Dewpoint Dewpoint Depression Visibility Wind Speed Wind Dir Waves Ship Positions

Andrew J. Barberi

Owner: CITY OF NEW YORK, Brooklyn, NY. More information available from US FCC via Universal Licensing System and Coast Guard Vessel Documentation Center.

Last reported at 2014-Oct-25 11:30 UTC. Time now 2014-Oct-25 12:06 UTC.
Position N 40°39' W 074°04'.

Length 94 m; draft 4.3 m.

Type: Ship. MMSI: 367000150.

Date/timePositionNaut miles runAvg speedWind from/ knotsBaromVisibWave heightAir tempDewpointWater temp
2014-Oct-25 11:30N 40°39' W 074°04'0 0.0
2014-Oct-25 10:33N 40°39' W 074°04'0 0.0
2014-Oct-25 09:33N 40°39' W 074°04'0 0.0
2014-Oct-25 08:33N 40°39' W 074°04'0 0.0
2014-Oct-25 07:33N 40°39' W 074°04'0 0.0
2014-Oct-25 06:33N 40°39' W 074°04'0 0.0
2014-Oct-25 05:33N 40°39' W 074°04'0 0.0
2014-Oct-25 04:33N 40°39' W 074°04'0 0.0
2014-Oct-25 03:27N 40°39' W 074°04'0 0.0
2014-Oct-25 02:33N 40°39' W 074°04'0 0.0
2014-Oct-25 01:33N 40°39' W 074°04'0 0.1
2014-Oct-25 00:05N 40°39' W 074°04'4 6.8
2014-Oct-24 23:27N 40°42' W 074°01'0 0.1
2014-Oct-24 22:33N 40°42' W 074°01'0 0.1
2014-Oct-24 21:33N 40°42' W 074°01'2 2.3
2014-Oct-24 20:33N 40°40' W 074°03'2 1.7
2014-Oct-24 19:27N 40°39' W 074°04'0 0.2
2014-Oct-24 18:33N 40°39' W 074°04'0 0.0
2014-Oct-24 17:33N 40°39' W 074°04'4 4.1
2014-Oct-24 16:34N 40°42' W 074°01'0 0.1
2014-Oct-24 15:34N 40°42' W 074°01'0 0.2
2014-Oct-24 14:34N 40°42' W 074°01'4 4.0
2014-Oct-24 13:33N 40°39' W 074°04'3 3.3
2014-Oct-24 12:33N 40°41' W 074°02'1 0.6
2014-Oct-24 11:33N 40°42' W 074°01'0 0.3
2014-Oct-24 10:33N 40°42' W 074°01'4 4.2
2014-Oct-24 09:34N 40°39' W 074°04'0 0.0
2014-Oct-24 08:34N 40°39' W 074°04'0 0.0
2014-Oct-24 07:32N 40°39' W 074°04'0 0.0
2014-Oct-24 06:32N 40°39' W 074°04'0 0.0
2014-Oct-24 05:29N 40°39' W 074°04'0 0.0
2014-Oct-24 04:32N 40°39' W 074°04'0 0.0
2014-Oct-24 03:32N 40°39' W 074°04'0 0.0
2014-Oct-24 02:32N 40°39' W 074°04'0 0.1
2014-Oct-24 01:33N 40°39' W 074°04'4 4.2
2014-Oct-24 00:33N 40°42' W 074°01'4 3.7
2014-Oct-23 23:25N 40°39' W 074°04'0 0.1
2014-Oct-23 22:34N 40°39' W 074°04'0 0.3
2014-Oct-23 21:34N 40°39' W 074°04'4 4.0
2014-Oct-23 20:34N 40°42' W 074°01'0 0.1
2014-Oct-23 19:33N 40°42' W 074°01'4 3.5
2014-Oct-23 18:21N 40°39' W 074°04'0 0.4
2014-Oct-23 17:34N 40°39' W 074°04'0 0.4
2014-Oct-23 16:33N 40°39' W 074°04'0 0.0
2014-Oct-23 15:33N 40°39' W 074°04'0 0.1
2014-Oct-23 14:33N 40°39' W 074°04'0 0.0
2014-Oct-23 13:33N 40°39' W 074°04'3 3.4
2014-Oct-23 12:34N 40°41' W 074°02'1 0.6
2014-Oct-23 11:34N 40°42' W 074°01'0 0.2
2014-Oct-23 10:33N 40°42' W 074°01'4 4.2
2014-Oct-23 09:33N 40°39' W 074°04'0 0.0
2014-Oct-23 08:11N 40°39' W 074°04'0 0.0
2014-Oct-23 07:32N 40°39' W 074°04'0 0.0
2014-Oct-23 06:32N 40°39' W 074°04'0 0.0
2014-Oct-23 05:32N 40°39' W 074°04'0 0.0
2014-Oct-23 04:32N 40°39' W 074°04'0 0.0
2014-Oct-23 03:32N 40°39' W 074°04'0 0.0
2014-Oct-23 02:32N 40°39' W 074°04'4 2.1
2014-Oct-23 00:34N 40°42' W 074°01'4 3.6
2014-Oct-22 23:25N 40°39' W 074°04'0 0.1
2014-Oct-22 22:33N 40°39' W 074°04'0 0.3
2014-Oct-22 21:34N 40°39' W 074°04'4 4.0
2014-Oct-22 20:33N 40°42' W 074°01'0 0.0
2014-Oct-22 19:33N 40°42' W 074°01'4 3.6
2014-Oct-22 18:22N 40°39' W 074°04'0 0.4
2014-Oct-22 17:33N 40°39' W 074°04'4 4.0
2014-Oct-22 16:34N 40°42' W 074°01'4 4.3
2014-Oct-22 15:33N 40°39' W 074°04'0 0.0
2014-Oct-22 14:33N 40°39' W 074°04'0 0.2
2014-Oct-22 13:33N 40°39' W 074°04'3 3.0
2014-Oct-22 12:33N 40°41' W 074°02'1 0.9
2014-Oct-22 11:33N 40°42' W 074°01'0 0.1
2014-Oct-22 10:33N 40°42' W 074°01'4 4.2
2014-Oct-22 09:33N 40°39' W 074°04'0 0.0
2014-Oct-22 08:33N 40°39' W 074°04'0 0.0
2014-Oct-22 07:31N 40°39' W 074°04'0 0.0
2014-Oct-22 06:31N 40°39' W 074°04'0 0.0
2014-Oct-22 05:28N 40°39' W 074°04'0 0.0
2014-Oct-22 04:31N 40°39' W 074°04'0 0.0
2014-Oct-22 03:31N 40°39' W 074°04'0 0.0
2014-Oct-22 02:31N 40°39' W 074°04'0 0.1
2014-Oct-22 01:34N 40°39' W 074°04'4 3.6
2014-Oct-22 00:21N 40°42' W 074°01'4 4.6
2014-Oct-21 23:25N 40°39' W 074°04'0 0.0
2014-Oct-21 22:34N 40°39' W 074°04'0 0.0
2014-Oct-21 21:33N 40°39' W 074°04'4 4.2
2014-Oct-21 20:33N 40°42' W 074°01'0 0.1
2014-Oct-21 19:33N 40°42' W 074°01'4 3.5
2014-Oct-21 18:21N 40°39' W 074°04'0 0.3
2014-Oct-21 17:33N 40°39' W 074°04'0 0.1
2014-Oct-21 13:34N 40°39' W 074°04'3 3.0
2014-Oct-21 12:33N 40°41' W 074°02'1 1.0
2014-Oct-21 11:34N 40°42' W 074°01'0 0.2
2014-Oct-21 10:34N 40°42' W 074°01'4 4.2
2014-Oct-21 09:34N 40°39' W 074°04'0 0.0
2014-Oct-21 07:28N 40°39' W 074°04'0 0.0
2014-Oct-21 06:31N 40°39' W 074°04'0 0.0
2014-Oct-21 05:31N 40°39' W 074°04'0 0.0
2014-Oct-21 04:31N 40°39' W 074°04'0 0.0
2014-Oct-21 03:31N 40°39' W 074°04'0 0.1
2014-Oct-21 02:33N 40°39' W 074°04'4 4.2
2014-Oct-21 01:33N 40°42' W 074°01'0 0.1
2014-Oct-21 00:34N 40°42' W 074°01'4 4.3
2014-Oct-20 23:33N 40°39' W 074°04'0 0.4
2014-Oct-20 22:33N 40°39' W 074°04'0 0.3
2014-Oct-20 21:33N 40°39' W 074°04'4 3.9
2014-Oct-20 20:29N 40°42' W 074°01'0 0.0
2014-Oct-20 19:33N 40°42' W 074°01'4 3.6
2014-Oct-20 18:22N 40°39' W 074°04'0 0.3
2014-Oct-20 17:33N 40°39' W 074°04'4 4.1
2014-Oct-20 16:34N 40°42' W 074°01'4 4.3
2014-Oct-20 15:33N 40°39' W 074°04'0 0.1
2014-Oct-20 14:34N 40°39' W 074°04'0 0.1
2014-Oct-20 13:34N 40°39' W 074°04'3 3.4
2014-Oct-20 12:33N 40°42' W 074°02'0 0.5
2014-Oct-20 11:33N 40°42' W 074°01'0 0.1
2014-Oct-20 10:34N 40°42' W 074°01'4 4.1
2014-Oct-20 09:33N 40°39' W 074°04'0 0.0
2014-Oct-20 08:23N 40°39' W 074°04'0 0.0
2014-Oct-20 07:31N 40°39' W 074°04'0 0.0
2014-Oct-20 06:31N 40°39' W 074°04'0 0.0
2014-Oct-20 05:31N 40°39' W 074°04'0 0.0
2014-Oct-20 04:31N 40°39' W 074°04'0 0.0
2014-Oct-20 03:31N 40°39' W 074°04'0 0.0
2014-Oct-20 02:31N 40°39' W 074°04'0 0.0
2014-Oct-20 01:31N 40°39' W 074°04'0 0.0
2014-Oct-20 00:31N 40°39' W 074°04'0 0.0
2014-Oct-19 23:31N 40°39' W 074°04'0 0.0
2014-Oct-19 22:31N 40°39' W 074°04'0 0.0
2014-Oct-19 21:31N 40°39' W 074°04'0 0.0
2014-Oct-19 20:31N 40°39' W 074°04'0 0.0
2014-Oct-19 19:13N 40°39' W 074°04'0 0.0
2014-Oct-19 18:31N 40°39' W 074°04'0 0.0
2014-Oct-19 17:31N 40°39' W 074°04'0 0.0
2014-Oct-19 16:31N 40°39' W 074°04'0 0.0
2014-Oct-19 15:31N 40°39' W 074°04'0 0.0
2014-Oct-19 14:31N 40°39' W 074°04'0 0.0
2014-Oct-19 13:31N 40°39' W 074°04'0 0.0
2014-Oct-19 12:31N 40°39' W 074°04'0 0.0
2014-Oct-19 11:31N 40°39' W 074°04'0 0.0
2014-Oct-19 10:28N 40°39' W 074°04'0 0.0
2014-Oct-19 09:28N 40°39' W 074°04'0 0.0
2014-Oct-19 08:31N 40°39' W 074°04'0 0.0
2014-Oct-19 07:31N 40°39' W 074°04'0 0.0
2014-Oct-19 06:31N 40°39' W 074°04'0 0.0
2014-Oct-19 05:31N 40°39' W 074°04'0 0.0
2014-Oct-19 04:31N 40°39' W 074°04'0 0.0
2014-Oct-19 03:31N 40°39' W 074°04'0 0.0
2014-Oct-19 02:28N 40°39' W 074°04'0 0.0
2014-Oct-19 01:31N 40°39' W 074°04'0 0.0
2014-Oct-19 00:31N 40°39' W 074°04'0 0.0
2014-Oct-18 23:28N 40°39' W 074°04'0 0.0
2014-Oct-18 19:22N 40°39' W 074°04'0 0.0
2014-Oct-18 18:31N 40°39' W 074°04'0 0.0
2014-Oct-18 17:31N 40°39' W 074°04'0 0.0
2014-Oct-18 15:22N 40°39' W 074°04'0 0.0
2014-Oct-18 14:25N 40°39' W 074°04'0 0.0
2014-Oct-18 13:28N 40°39' W 074°04'0 0.0
2014-Oct-18 12:25N 40°39' W 074°04'0 0.0
2014-Oct-18 08:19N 40°39' W 074°04'0 0.0
2014-Oct-18 07:31N 40°39' W 074°04'0 0.0
2014-Oct-18 06:31N 40°39' W 074°04'0 0.0
2014-Oct-18 05:31N 40°39' W 074°04'0 0.0
2014-Oct-18 04:31N 40°39' W 074°04'0 0.0
2014-Oct-18 03:31N 40°39' W 074°04'0 0.0
2014-Oct-18 02:31N 40°39' W 074°04'0 0.0
2014-Oct-18 01:31N 40°39' W 074°04'0 0.1
2014-Oct-18 00:33N 40°39' W 074°04'4 4.3
2014-Oct-17 23:34N 40°42' W 074°01'0 0.0
2014-Oct-17 22:33N 40°42' W 074°01'0 0.0
2014-Oct-17 21:33N 40°42' W 074°01'2 2.2
2014-Oct-17 20:33N 40°40' W 074°03'2 1.9
2014-Oct-17 19:29N 40°39' W 074°04'0 0.0
2014-Oct-17 18:33N 40°39' W 074°04'0 0.1
2014-Oct-17 17:33N 40°39' W 074°04'4 4.2
2014-Oct-17 16:33N 40°42' W 074°01'0 0.2
2014-Oct-17 15:34N 40°42' W 074°01'0 0.1
2014-Oct-17 14:33N 40°42' W 074°01'4 3.1
2014-Oct-17 13:12N 40°39' W 074°04'0 0.0
2014-Oct-17 12:11N 40°39' W 074°04'4 2.5
2014-Oct-17 10:34N 40°42' W 074°01'4 4.1
2014-Oct-17 09:33N 40°39' W 074°04'0 0.0
2014-Oct-17 08:32N 40°39' W 074°04'0 0.0
2014-Oct-17 07:32N 40°39' W 074°04'0 0.0
2014-Oct-17 06:32N 40°39' W 074°04'0 0.0
2014-Oct-17 05:32N 40°39' W 074°04'0 0.0
2014-Oct-17 04:32N 40°39' W 074°04'0 0.0
2014-Oct-17 03:32N 40°39' W 074°04'0 0.0
2014-Oct-17 02:32N 40°39' W 074°04'4 2.0
2014-Oct-17 00:23N 40°42' W 074°01'4 2.2
2014-Oct-16 22:28N 40°39' W 074°04'0 0.0
2014-Oct-16 21:33N 40°39' W 074°04'4 4.3
2014-Oct-16 20:33N 40°42' W 074°01'0 0.0
2014-Oct-16 19:33N 40°42' W 074°01'4 3.9
2014-Oct-16 18:28N 40°39' W 074°04'0 0.1
2014-Oct-16 17:33N 40°39' W 074°04'0 0.1
2014-Oct-16 16:34N 40°39' W 074°04'0 0.3
2014-Oct-16 15:33N 40°39' W 074°04'0 0.1
2014-Oct-16 14:33N 40°39' W 074°04'0 0.2
2014-Oct-16 13:34N 40°39' W 074°04'3 2.6
2014-Oct-16 12:33N 40°41' W 074°02'0 0.4
2014-Oct-16 11:30N 40°40' W 074°02'2 1.9
2014-Oct-16 10:34N 40°42' W 074°01'4 3.8
2014-Oct-16 09:30N 40°39' W 074°04'0 0.2
2014-Oct-16 08:12N 40°39' W 074°04'0 0.0
2014-Oct-16 05:34N 40°39' W 074°04'0 0.2
2014-Oct-16 04:33N 40°39' W 074°04'4 4.0
2014-Oct-16 03:31N 40°42' W 074°01'0 0.1
2014-Oct-16 02:33N 40°42' W 074°01'0 0.1
2014-Oct-16 01:32N 40°42' W 074°01'4 4.3
2014-Oct-16 00:33N 40°39' W 074°04'0 0.1
2014-Oct-15 23:33N 40°39' W 074°04'4 3.6
2014-Oct-15 22:33N 40°42' W 074°01'1 0.5
2014-Oct-15 21:31N 40°42' W 074°01'0 0.2
2014-Oct-15 20:29N 40°42' W 074°01'4 4.8
2014-Oct-15 19:33N 40°39' W 074°04'0 0.0
2014-Oct-15 18:33N 40°39' W 074°04'0 0.0
2014-Oct-15 17:22N 40°39' W 074°04'0 0.0
2014-Oct-15 16:25N 40°39' W 074°04'0 0.0
2014-Oct-15 15:10N 40°39' W 074°04'0 0.0
2014-Oct-15 14:28N 40°39' W 074°04'0 0.0
2014-Oct-15 13:25N 40°39' W 074°04'0 0.0
2014-Oct-15 12:19N 40°39' W 074°04'  
Track history (hours):
 
Tides and Currents Weather Stations Pressure Air Temp Water Temp Dewpoint Dewpoint Depression Visibility Wind Speed Wind Dir Waves Ship Positions

Andrew J. Barberi

Owner: CITY OF NEW YORK, Brooklyn, NY. More information available from US FCC via Universal Licensing System and Coast Guard Vessel Documentation Center.

Last reported at 2014-Oct-25 11:30 UTC. Time now 2014-Oct-25 12:06 UTC.
Position N 40°39' W 074°04'.

Length 94 m; draft 4.3 m.

Type: Ship. MMSI: 367000150.

Date/timePositionNaut miles runAvg speedWind from/ knotsBaromVisibWave heightAir tempDewpointWater temp
2014-Oct-25 11:30N 40°39' W 074°04'0 0.0
2014-Oct-25 10:33N 40°39' W 074°04'0 0.0
2014-Oct-25 09:33N 40°39' W 074°04'0 0.0
2014-Oct-25 08:33N 40°39' W 074°04'0 0.0
2014-Oct-25 07:33N 40°39' W 074°04'0 0.0
2014-Oct-25 06:33N 40°39' W 074°04'0 0.0
2014-Oct-25 05:33N 40°39' W 074°04'0 0.0
2014-Oct-25 04:33N 40°39' W 074°04'0 0.0
2014-Oct-25 03:27N 40°39' W 074°04'0 0.0
2014-Oct-25 02:33N 40°39' W 074°04'0 0.0
2014-Oct-25 01:33N 40°39' W 074°04'0 0.1
2014-Oct-25 00:05N 40°39' W 074°04'4 6.8
2014-Oct-24 23:27N 40°42' W 074°01'0 0.1
2014-Oct-24 22:33N 40°42' W 074°01'0 0.1
2014-Oct-24 21:33N 40°42' W 074°01'2 2.3
2014-Oct-24 20:33N 40°40' W 074°03'2 1.7
2014-Oct-24 19:27N 40°39' W 074°04'0 0.2
2014-Oct-24 18:33N 40°39' W 074°04'0 0.0
2014-Oct-24 17:33N 40°39' W 074°04'4 4.1
2014-Oct-24 16:34N 40°42' W 074°01'0 0.1
2014-Oct-24 15:34N 40°42' W 074°01'0 0.2
2014-Oct-24 14:34N 40°42' W 074°01'4 4.0
2014-Oct-24 13:33N 40°39' W 074°04'3 3.3
2014-Oct-24 12:33N 40°41' W 074°02'1 0.6
2014-Oct-24 11:33N 40°42' W 074°01'0 0.3
2014-Oct-24 10:33N 40°42' W 074°01'4 4.2
2014-Oct-24 09:34N 40°39' W 074°04'0 0.0
2014-Oct-24 08:34N 40°39' W 074°04'0 0.0
2014-Oct-24 07:32N 40°39' W 074°04'0 0.0
2014-Oct-24 06:32N 40°39' W 074°04'0 0.0
2014-Oct-24 05:29N 40°39' W 074°04'0 0.0
2014-Oct-24 04:32N 40°39' W 074°04'0 0.0
2014-Oct-24 03:32N 40°39' W 074°04'0 0.0
2014-Oct-24 02:32N 40°39' W 074°04'0 0.1
2014-Oct-24 01:33N 40°39' W 074°04'4 4.2
2014-Oct-24 00:33N 40°42' W 074°01'4 3.7
2014-Oct-23 23:25N 40°39' W 074°04'0 0.1
2014-Oct-23 22:34N 40°39' W 074°04'0 0.3
2014-Oct-23 21:34N 40°39' W 074°04'4 4.0
2014-Oct-23 20:34N 40°42' W 074°01'0 0.1
2014-Oct-23 19:33N 40°42' W 074°01'4 3.5
2014-Oct-23 18:21N 40°39' W 074°04'0 0.4
2014-Oct-23 17:34N 40°39' W 074°04'0 0.4
2014-Oct-23 16:33N 40°39' W 074°04'0 0.0
2014-Oct-23 15:33N 40°39' W 074°04'0 0.1
2014-Oct-23 14:33N 40°39' W 074°04'0 0.0
2014-Oct-23 13:33N 40°39' W 074°04'3 3.4
2014-Oct-23 12:34N 40°41' W 074°02'1 0.6
2014-Oct-23 11:34N 40°42' W 074°01'0 0.2
2014-Oct-23 10:33N 40°42' W 074°01'4 4.2
2014-Oct-23 09:33N 40°39' W 074°04'0 0.0
2014-Oct-23 08:11N 40°39' W 074°04'0 0.0
2014-Oct-23 07:32N 40°39' W 074°04'0 0.0
2014-Oct-23 06:32N 40°39' W 074°04'0 0.0
2014-Oct-23 05:32N 40°39' W 074°04'0 0.0
2014-Oct-23 04:32N 40°39' W 074°04'0 0.0
2014-Oct-23 03:32N 40°39' W 074°04'0 0.0
2014-Oct-23 02:32N 40°39' W 074°04'4 2.1
2014-Oct-23 00:34N 40°42' W 074°01'4 3.6
2014-Oct-22 23:25N 40°39' W 074°04'0 0.1
2014-Oct-22 22:33N 40°39' W 074°04'0 0.3
2014-Oct-22 21:34N 40°39' W 074°04'4 4.0
2014-Oct-22 20:33N 40°42' W 074°01'0 0.0
2014-Oct-22 19:33N 40°42' W 074°01'4 3.6
2014-Oct-22 18:22N 40°39' W 074°04'0 0.4
2014-Oct-22 17:33N 40°39' W 074°04'4 4.0
2014-Oct-22 16:34N 40°42' W 074°01'4 4.3
2014-Oct-22 15:33N 40°39' W 074°04'0 0.0
2014-Oct-22 14:33N 40°39' W 074°04'0 0.2
2014-Oct-22 13:33N 40°39' W 074°04'3 3.0
2014-Oct-22 12:33N 40°41' W 074°02'1 0.9
2014-Oct-22 11:33N 40°42' W 074°01'0 0.1
2014-Oct-22 10:33N 40°42' W 074°01'4 4.2
2014-Oct-22 09:33N 40°39' W 074°04'0 0.0
2014-Oct-22 08:33N 40°39' W 074°04'0 0.0
2014-Oct-22 07:31N 40°39' W 074°04'0 0.0
2014-Oct-22 06:31N 40°39' W 074°04'0 0.0
2014-Oct-22 05:28N 40°39' W 074°04'0 0.0
2014-Oct-22 04:31N 40°39' W 074°04'0 0.0
2014-Oct-22 03:31N 40°39' W 074°04'0 0.0
2014-Oct-22 02:31N 40°39' W 074°04'0 0.1
2014-Oct-22 01:34N 40°39' W 074°04'4 3.6
2014-Oct-22 00:21N 40°42' W 074°01'4 4.6
2014-Oct-21 23:25N 40°39' W 074°04'0 0.0
2014-Oct-21 22:34N 40°39' W 074°04'0 0.0
2014-Oct-21 21:33N 40°39' W 074°04'4 4.2
2014-Oct-21 20:33N 40°42' W 074°01'0 0.1
2014-Oct-21 19:33N 40°42' W 074°01'4 3.5
2014-Oct-21 18:21N 40°39' W 074°04'0 0.3
2014-Oct-21 17:33N 40°39' W 074°04'0 0.1
2014-Oct-21 13:34N 40°39' W 074°04'3 3.0
2014-Oct-21 12:33N 40°41' W 074°02'1 1.0
2014-Oct-21 11:34N 40°42' W 074°01'0 0.2
2014-Oct-21 10:34N 40°42' W 074°01'4 4.2
2014-Oct-21 09:34N 40°39' W 074°04'0 0.0
2014-Oct-21 07:28N 40°39' W 074°04'0 0.0
2014-Oct-21 06:31N 40°39' W 074°04'0 0.0
2014-Oct-21 05:31N 40°39' W 074°04'0 0.0
2014-Oct-21 04:31N 40°39' W 074°04'0 0.0
2014-Oct-21 03:31N 40°39' W 074°04'0 0.1
2014-Oct-21 02:33N 40°39' W 074°04'4 4.2
2014-Oct-21 01:33N 40°42' W 074°01'0 0.1
2014-Oct-21 00:34N 40°42' W 074°01'4 4.3
2014-Oct-20 23:33N 40°39' W 074°04'0 0.4
2014-Oct-20 22:33N 40°39' W 074°04'0 0.3
2014-Oct-20 21:33N 40°39' W 074°04'4 3.9
2014-Oct-20 20:29N 40°42' W 074°01'0 0.0
2014-Oct-20 19:33N 40°42' W 074°01'4 3.6
2014-Oct-20 18:22N 40°39' W 074°04'0 0.3
2014-Oct-20 17:33N 40°39' W 074°04'4 4.1
2014-Oct-20 16:34N 40°42' W 074°01'4 4.3
2014-Oct-20 15:33N 40°39' W 074°04'0 0.1
2014-Oct-20 14:34N 40°39' W 074°04'0 0.1
2014-Oct-20 13:34N 40°39' W 074°04'3 3.4
2014-Oct-20 12:33N 40°42' W 074°02'0 0.5
2014-Oct-20 11:33N 40°42' W 074°01'0 0.1
2014-Oct-20 10:34N 40°42' W 074°01'4 4.1
2014-Oct-20 09:33N 40°39' W 074°04'0 0.0
2014-Oct-20 08:23N 40°39' W 074°04'0 0.0
2014-Oct-20 07:31N 40°39' W 074°04'0 0.0
2014-Oct-20 06:31N 40°39' W 074°04'0 0.0
2014-Oct-20 05:31N 40°39' W 074°04'0 0.0
2014-Oct-20 04:31N 40°39' W 074°04'0 0.0
2014-Oct-20 03:31N 40°39' W 074°04'0 0.0
2014-Oct-20 02:31N 40°39' W 074°04'0 0.0
2014-Oct-20 01:31N 40°39' W 074°04'0 0.0
2014-Oct-20 00:31N 40°39' W 074°04'0 0.0
2014-Oct-19 23:31N 40°39' W 074°04'0 0.0
2014-Oct-19 22:31N 40°39' W 074°04'0 0.0
2014-Oct-19 21:31N 40°39' W 074°04'0 0.0
2014-Oct-19 20:31N 40°39' W 074°04'0 0.0
2014-Oct-19 19:13N 40°39' W 074°04'0 0.0
2014-Oct-19 18:31N 40°39' W 074°04'0 0.0
2014-Oct-19 17:31N 40°39' W 074°04'0 0.0
2014-Oct-19 16:31N 40°39' W 074°04'0 0.0
2014-Oct-19 15:31N 40°39' W 074°04'0 0.0
2014-Oct-19 14:31N 40°39' W 074°04'0 0.0
2014-Oct-19 13:31N 40°39' W 074°04'0 0.0
2014-Oct-19 12:31N 40°39' W 074°04'0 0.0
2014-Oct-19 11:31N 40°39' W 074°04'0 0.0
2014-Oct-19 10:28N 40°39' W 074°04'0 0.0
2014-Oct-19 09:28N 40°39' W 074°04'0 0.0
2014-Oct-19 08:31N 40°39' W 074°04'0 0.0
2014-Oct-19 07:31N 40°39' W 074°04'0 0.0
2014-Oct-19 06:31N 40°39' W 074°04'0 0.0
2014-Oct-19 05:31N 40°39' W 074°04'0 0.0
2014-Oct-19 04:31N 40°39' W 074°04'0 0.0
2014-Oct-19 03:31N 40°39' W 074°04'0 0.0
2014-Oct-19 02:28N 40°39' W 074°04'0 0.0
2014-Oct-19 01:31N 40°39' W 074°04'0 0.0
2014-Oct-19 00:31N 40°39' W 074°04'0 0.0
2014-Oct-18 23:28N 40°39' W 074°04'0 0.0
2014-Oct-18 19:22N 40°39' W 074°04'0 0.0
2014-Oct-18 18:31N 40°39' W 074°04'0 0.0
2014-Oct-18 17:31N 40°39' W 074°04'0 0.0
2014-Oct-18 15:22N 40°39' W 074°04'0 0.0
2014-Oct-18 14:25N 40°39' W 074°04'0 0.0
2014-Oct-18 13:28N 40°39' W 074°04'0 0.0
2014-Oct-18 12:25N 40°39' W 074°04'0 0.0
2014-Oct-18 08:19N 40°39' W 074°04'0 0.0
2014-Oct-18 07:31N 40°39' W 074°04'0 0.0
2014-Oct-18 06:31N 40°39' W 074°04'0 0.0
2014-Oct-18 05:31N 40°39' W 074°04'0 0.0
2014-Oct-18 04:31N 40°39' W 074°04'0 0.0
2014-Oct-18 03:31N 40°39' W 074°04'0 0.0
2014-Oct-18 02:31N 40°39' W 074°04'0 0.0
2014-Oct-18 01:31N 40°39' W 074°04'0 0.1
2014-Oct-18 00:33N 40°39' W 074°04'4 4.3
2014-Oct-17 23:34N 40°42' W 074°01'0 0.0
2014-Oct-17 22:33N 40°42' W 074°01'0 0.0
2014-Oct-17 21:33N 40°42' W 074°01'2 2.2
2014-Oct-17 20:33N 40°40' W 074°03'2 1.9
2014-Oct-17 19:29N 40°39' W 074°04'0 0.0
2014-Oct-17 18:33N 40°39' W 074°04'0 0.1
2014-Oct-17 17:33N 40°39' W 074°04'4 4.2
2014-Oct-17 16:33N 40°42' W 074°01'0 0.2
2014-Oct-17 15:34N 40°42' W 074°01'0 0.1
2014-Oct-17 14:33N 40°42' W 074°01'4 3.1
2014-Oct-17 13:12N 40°39' W 074°04'0 0.0
2014-Oct-17 12:11N 40°39' W 074°04'4 2.5
2014-Oct-17 10:34N 40°42' W 074°01'4 4.1
2014-Oct-17 09:33N 40°39' W 074°04'0 0.0
2014-Oct-17 08:32N 40°39' W 074°04'0 0.0
2014-Oct-17 07:32N 40°39' W 074°04'0 0.0
2014-Oct-17 06:32N 40°39' W 074°04'0 0.0
2014-Oct-17 05:32N 40°39' W 074°04'0 0.0
2014-Oct-17 04:32N 40°39' W 074°04'0 0.0
2014-Oct-17 03:32N 40°39' W 074°04'0 0.0
2014-Oct-17 02:32N 40°39' W 074°04'4 2.0
2014-Oct-17 00:23N 40°42' W 074°01'4 2.2
2014-Oct-16 22:28N 40°39' W 074°04'0 0.0
2014-Oct-16 21:33N 40°39' W 074°04'4 4.3
2014-Oct-16 20:33N 40°42' W 074°01'0 0.0
2014-Oct-16 19:33N 40°42' W 074°01'4 3.9
2014-Oct-16 18:28N 40°39' W 074°04'0 0.1
2014-Oct-16 17:33N 40°39' W 074°04'0 0.1
2014-Oct-16 16:34N 40°39' W 074°04'0 0.3
2014-Oct-16 15:33N 40°39' W 074°04'0 0.1
2014-Oct-16 14:33N 40°39' W 074°04'0 0.2
2014-Oct-16 13:34N 40°39' W 074°04'3 2.6
2014-Oct-16 12:33N 40°41' W 074°02'0 0.4
2014-Oct-16 11:30N 40°40' W 074°02'2 1.9
2014-Oct-16 10:34N 40°42' W 074°01'4 3.8
2014-Oct-16 09:30N 40°39' W 074°04'0 0.2
2014-Oct-16 08:12N 40°39' W 074°04'0 0.0
2014-Oct-16 05:34N 40°39' W 074°04'0 0.2
2014-Oct-16 04:33N 40°39' W 074°04'4 4.0
2014-Oct-16 03:31N 40°42' W 074°01'0 0.1
2014-Oct-16 02:33N 40°42' W 074°01'0 0.1
2014-Oct-16 01:32N 40°42' W 074°01'4 4.3
2014-Oct-16 00:33N 40°39' W 074°04'0 0.1
2014-Oct-15 23:33N 40°39' W 074°04'4 3.6
2014-Oct-15 22:33N 40°42' W 074°01'1 0.5
2014-Oct-15 21:31N 40°42' W 074°01'0 0.2
2014-Oct-15 20:29N 40°42' W 074°01'4 4.8
2014-Oct-15 19:33N 40°39' W 074°04'0 0.0
2014-Oct-15 18:33N 40°39' W 074°04'0 0.0
2014-Oct-15 17:22N 40°39' W 074°04'0 0.0
2014-Oct-15 16:25N 40°39' W 074°04'0 0.0
2014-Oct-15 15:10N 40°39' W 074°04'0 0.0
2014-Oct-15 14:28N 40°39' W 074°04'0 0.0
2014-Oct-15 13:25N 40°39' W 074°04'0 0.0
2014-Oct-15 12:19N 40°39' W 074°04'  

Dump ship's entire track history